createdAt,value
2023-04-08T00:00:33.616Z,100914.94
2023-04-08T00:01:36.555Z,100918.09
2023-04-08T00:02:38.809Z,100915.56
2023-04-08T00:03:41.688Z,100918.06
2023-04-08T00:04:43.573Z,100904.13
2023-04-08T00:05:46.385Z,100911.63
2023-04-08T00:06:47.902Z,100913.25
2023-04-08T00:07:50.393Z,100916.16
2023-04-08T00:08:53.186Z,100909.16
2023-04-08T00:09:55.730Z,100906.03
2023-04-08T00:10:57.415Z,100904.00
2023-04-08T00:11:59.936Z,100907.91
2023-04-08T00:13:01.454Z,100908.94
2023-04-08T00:14:04.546Z,100905.22
2023-04-08T00:15:06.935Z,100904.38
2023-04-08T00:16:09.404Z,100904.56
2023-04-08T00:17:11.187Z,100903.38
2023-04-08T00:18:15.055Z,100908.31
2023-04-08T00:19:16.826Z,100909.06
2023-04-08T00:20:19.462Z,100909.97
2023-04-08T00:21:21.197Z,100900.03
2023-04-08T00:22:24.270Z,100907.78
2023-04-08T00:23:25.965Z,100904.88
2023-04-08T00:24:29.875Z,100904.72
2023-04-08T00:25:31.617Z,100903.75
2023-04-08T00:26:34.131Z,100910.13
2023-04-08T00:27:35.714Z,100904.63
2023-04-08T00:28:38.511Z,100909.63
2023-04-08T00:29:40.447Z,100902.88
2023-04-08T00:30:42.940Z,100899.94
2023-04-08T00:31:44.551Z,100912.19
2023-04-08T00:32:47.115Z,100909.41
2023-04-08T00:33:48.614Z,100914.25
2023-04-08T00:34:51.018Z,100897.22
2023-04-08T00:35:53.568Z,100909.59
2023-04-08T00:36:56.339Z,100914.09
2023-04-08T00:37:58.801Z,100911.31
2023-04-08T00:39:00.322Z,100910.78
2023-04-08T00:40:05.675Z,100910.63
2023-04-08T00:41:07.167Z,100905.38
2023-04-08T00:42:09.752Z,100908.75
2023-04-08T00:43:11.602Z,100906.34
2023-04-08T00:44:14.048Z,100914.88
2023-04-08T00:45:15.968Z,100904.84
2023-04-08T00:46:18.457Z,100906.06
2023-04-08T00:47:20.483Z,100912.06
2023-04-08T00:48:22.970Z,100909.41
2023-04-08T00:49:24.519Z,100909.66
2023-04-08T00:50:27.019Z,100909.00
2023-04-08T00:51:28.657Z,100914.25
2023-04-08T00:52:31.330Z,100904.34
2023-04-08T00:53:32.839Z,100910.22
2023-04-08T00:54:37.911Z,100907.78
2023-04-08T00:55:40.900Z,100897.22
2023-04-08T00:56:44.715Z,100904.06
2023-04-08T00:57:46.961Z,100911.88
2023-04-08T00:58:51.081Z,100909.88
2023-04-08T00:59:52.938Z,100903.63
2023-04-08T01:01:01.150Z,100911.22
2023-04-08T01:02:13.472Z,100909.00
2023-04-08T01:03:20.813Z,100906.22
2023-04-08T01:04:29.739Z,100899.69
2023-04-08T01:05:52.580Z,100898.28
2023-04-08T01:07:00.583Z,100908.00
2023-04-08T01:08:06.270Z,100903.53
2023-04-08T01:09:10.031Z,100901.50
2023-04-08T01:10:15.607Z,100912.63
2023-04-08T01:11:21.392Z,100908.09
2023-04-08T01:12:27.384Z,100908.34
2023-04-08T01:13:35.598Z,100906.44
2023-04-08T01:14:42.420Z,100912.44
2023-04-08T01:15:46.134Z,100911.81
2023-04-08T01:16:48.001Z,100913.66
2023-04-08T01:17:54.065Z,100899.63
2023-04-08T01:18:56.528Z,100910.16
2023-04-08T01:20:01.682Z,100912.78
2023-04-08T01:21:05.245Z,100907.50
2023-04-08T01:22:16.648Z,100909.81
2023-04-08T01:23:24.167Z,100915.00
2023-04-08T01:24:29.722Z,100916.16
2023-04-08T01:25:34.218Z,100910.31
2023-04-08T01:26:38.170Z,100913.78
2023-04-08T01:27:40.893Z,100914.34
2023-04-08T01:28:44.281Z,100910.41
2023-04-08T01:29:49.022Z,100911.66
2023-04-08T01:30:52.516Z,100917.88
2023-04-08T01:31:55.533Z,100913.59
2023-04-08T01:33:00.532Z,100910.16
2023-04-08T01:34:04.649Z,100919.84
2023-04-08T01:35:08.841Z,100916.22
2023-04-08T01:36:11.050Z,100919.44
2023-04-08T01:37:15.976Z,100920.16
2023-04-08T01:38:19.736Z,100912.03
2023-04-08T01:39:22.513Z,100909.97
2023-04-08T01:40:24.261Z,100913.59
2023-04-08T01:41:26.751Z,100917.31
2023-04-08T01:42:29.979Z,100911.78
2023-04-08T01:43:35.118Z,100909.06
2023-04-08T01:44:38.015Z,100907.50
2023-04-08T01:45:40.530Z,100915.75
2023-04-08T01:46:43.576Z,100912.69
2023-04-08T01:47:48.284Z,100913.09
2023-04-08T01:48:50.950Z,100909.19
2023-04-08T01:49:54.296Z,100901.91
2023-04-08T01:50:56.540Z,100917.16
2023-04-08T01:52:00.068Z,100909.50
2023-04-08T01:53:04.735Z,100904.72
2023-04-08T01:54:07.747Z,100906.53
2023-04-08T01:55:09.465Z,100905.63
2023-04-08T01:56:14.273Z,100903.66
2023-04-08T01:57:19.675Z,100909.50
2023-04-08T01:58:24.148Z,100913.50
2023-04-08T01:59:29.921Z,100910.84
2023-04-08T02:00:33.470Z,100921.00
2023-04-08T02:01:35.802Z,100915.75
2023-04-08T02:02:40.117Z,100909.72
2023-04-08T02:03:43.249Z,100908.31
2023-04-08T02:04:46.063Z,100909.06
2023-04-08T02:05:47.622Z,100909.59
2023-04-08T02:06:50.720Z,100917.84
2023-04-08T02:07:52.276Z,100908.47
2023-04-08T02:08:55.146Z,100925.97
2023-04-08T02:09:56.846Z,100914.66
2023-04-08T02:10:59.449Z,100911.84
2023-04-08T02:12:01.443Z,100908.84
2023-04-08T02:13:04.268Z,100911.72
2023-04-08T02:14:07.109Z,100912.91
2023-04-08T02:15:10.648Z,100910.09
2023-04-08T02:16:18.546Z,100909.31
2023-04-08T02:17:27.081Z,100910.59
2023-04-08T02:18:28.738Z,100914.69
2023-04-08T02:19:37.260Z,100914.69
2023-04-08T02:20:43.846Z,100917.94
2023-04-08T02:21:50.237Z,100924.16
2023-04-08T02:23:00.841Z,100914.66
2023-04-08T02:24:05.885Z,100924.59
2023-04-08T02:25:12.333Z,100927.72
2023-04-08T02:26:15.522Z,100926.72
2023-04-08T02:27:19.194Z,100929.03
2023-04-08T02:28:21.505Z,100928.22
2023-04-08T02:29:26.017Z,100923.78
2023-04-08T02:30:29.290Z,100929.97
2023-04-08T02:31:32.437Z,100924.38
2023-04-08T02:32:35.400Z,100924.81
2023-04-08T02:33:39.881Z,100928.50
2023-04-08T02:34:43.509Z,100926.38
2023-04-08T02:35:46.407Z,100926.53
2023-04-08T02:36:48.194Z,100921.88
2023-04-08T02:37:51.210Z,100925.97
2023-04-08T02:38:52.876Z,100917.25
2023-04-08T02:39:55.331Z,100889.91
2023-04-08T02:40:57.290Z,100913.84
2023-04-08T02:41:59.772Z,100916.50
2023-04-08T02:43:01.516Z,100908.81
2023-04-08T02:44:03.983Z,100912.03
2023-04-08T02:45:08.752Z,100912.09
2023-04-08T02:46:12.532Z,100912.19
2023-04-08T02:47:14.290Z,100919.19
2023-04-08T02:48:16.705Z,100912.00
2023-04-08T02:49:18.184Z,100911.22
2023-04-08T02:50:20.761Z,100915.66
2023-04-08T02:51:22.308Z,100912.78
2023-04-08T02:52:24.715Z,100915.22
2023-04-08T02:53:26.577Z,100916.38
2023-04-08T02:54:29.086Z,100904.03
2023-04-08T02:55:30.973Z,100918.75
2023-04-08T02:56:33.417Z,100910.63
2023-04-08T02:57:34.920Z,100916.25
2023-04-08T02:58:37.390Z,100906.22
2023-04-08T02:59:40.824Z,100924.38
2023-04-08T03:00:44.653Z,100915.69
2023-04-08T03:01:46.230Z,100928.69
2023-04-08T03:02:49.066Z,100917.94
2023-04-08T03:03:51.250Z,100920.97
2023-04-08T03:04:53.810Z,100921.41
2023-04-08T03:05:55.876Z,100925.84
2023-04-08T03:06:58.308Z,100913.03
2023-04-08T03:07:59.890Z,100915.19
2023-04-08T03:09:02.394Z,100918.88
2023-04-08T03:10:04.658Z,100916.72
2023-04-08T03:11:07.112Z,100913.09
2023-04-08T03:12:08.591Z,100920.34
2023-04-08T03:13:11.166Z,100922.41
2023-04-08T03:14:12.726Z,100918.00
2023-04-08T03:15:15.217Z,100915.50
2023-04-08T03:16:18.197Z,100911.56
2023-04-08T03:17:20.757Z,100917.47
2023-04-08T03:18:22.269Z,100917.06
2023-04-08T03:19:24.842Z,100914.47
2023-04-08T03:20:26.360Z,100912.34
2023-04-08T03:21:31.654Z,100912.94
2023-04-08T03:22:33.745Z,100916.59
2023-04-08T03:23:36.226Z,100925.91
2023-04-08T03:24:37.759Z,100919.06
2023-04-08T03:25:40.326Z,100928.69
2023-04-08T03:26:41.833Z,100923.47
2023-04-08T03:27:44.368Z,100927.13
2023-04-08T03:28:46.189Z,100924.38
2023-04-08T03:29:48.906Z,100922.25
2023-04-08T03:30:50.566Z,100928.69
2023-04-08T03:31:54.383Z,100923.91
2023-04-08T03:32:56.070Z,100926.16
2023-04-08T03:33:58.582Z,100925.53
2023-04-08T03:35:00.430Z,100924.00
2023-04-08T03:36:02.964Z,100927.06
2023-04-08T03:37:05.500Z,100921.59
2023-04-08T03:38:07.048Z,100930.94
2023-04-08T03:39:10.282Z,100934.84
2023-04-08T03:40:12.828Z,100924.03
2023-04-08T03:41:15.464Z,100926.91
2023-04-08T03:42:16.961Z,100925.31
2023-04-08T03:43:21.464Z,100933.34
2023-04-08T03:44:23.000Z,100927.91
2023-04-08T03:45:25.653Z,100936.94
2023-04-08T03:46:27.210Z,100931.41
2023-04-08T03:47:31.670Z,100936.25
2023-04-08T03:48:33.246Z,100938.94
2023-04-08T03:49:35.675Z,100936.59
2023-04-08T03:50:37.270Z,100936.34
2023-04-08T03:51:39.703Z,100937.94
2023-04-08T03:52:41.234Z,100935.53
2023-04-08T03:53:43.671Z,100934.63
2023-04-08T03:54:45.222Z,100933.53
2023-04-08T03:55:50.501Z,100935.94
2023-04-08T03:56:52.009Z,100948.91
2023-04-08T03:57:54.430Z,100938.91
2023-04-08T03:58:55.956Z,100952.81
2023-04-08T03:59:58.452Z,100944.75
2023-04-08T04:01:00.117Z,100952.28
2023-04-08T04:02:02.736Z,100948.94
2023-04-08T04:03:06.626Z,100950.97
2023-04-08T04:04:09.413Z,100953.00
2023-04-08T04:05:11.053Z,100952.66
2023-04-08T04:06:13.480Z,100952.53
2023-04-08T04:07:14.977Z,100946.63
2023-04-08T04:08:17.602Z,100954.47
2023-04-08T04:09:19.154Z,100956.16
2023-04-08T04:10:21.648Z,100961.19
2023-04-08T04:11:23.228Z,100955.28
2023-04-08T04:12:26.411Z,100958.50
2023-04-08T04:13:28.027Z,100962.19
2023-04-08T04:14:30.513Z,100960.31
2023-04-08T04:15:32.116Z,100964.78
2023-04-08T04:16:34.617Z,100963.00
2023-04-08T04:17:36.194Z,100963.34
2023-04-08T04:18:40.095Z,100975.53
2023-04-08T04:19:41.603Z,100967.13
2023-04-08T04:20:44.365Z,100966.19
2023-04-08T04:21:46.035Z,100968.41
2023-04-08T04:22:48.563Z,100972.78
2023-04-08T04:23:50.044Z,100981.59
2023-04-08T04:24:52.478Z,100981.13
2023-04-08T04:25:54.070Z,100974.31
2023-04-08T04:26:56.590Z,100967.31
2023-04-08T04:27:58.131Z,100974.63
2023-04-08T04:29:00.665Z,100977.56
2023-04-08T04:30:02.646Z,100981.81
2023-04-08T04:31:05.542Z,100977.66
2023-04-08T04:32:07.058Z,100981.03
2023-04-08T04:33:09.563Z,100979.09
2023-04-08T04:34:12.410Z,100977.25
2023-04-08T04:35:14.848Z,100978.34
2023-04-08T04:36:16.333Z,100980.41
2023-04-08T04:37:18.833Z,100987.81
2023-04-08T04:38:20.404Z,100983.44
2023-04-08T04:39:22.861Z,100980.84
2023-04-08T04:40:24.386Z,100981.44
2023-04-08T04:41:27.266Z,100982.66
2023-04-08T04:42:28.785Z,100978.06
2023-04-08T04:43:31.297Z,100981.09
2023-04-08T04:44:33.099Z,100980.72
2023-04-08T04:45:35.596Z,100978.00
2023-04-08T04:46:38.098Z,100984.59
2023-04-08T04:47:39.634Z,100984.22
2023-04-08T04:48:42.386Z,100974.34
2023-04-08T04:49:45.740Z,100980.84
2023-04-08T04:50:55.991Z,100990.50
2023-04-08T04:51:57.556Z,100978.03
2023-04-08T04:53:00.562Z,100987.09
2023-04-08T04:54:02.085Z,100991.56
2023-04-08T04:55:04.914Z,100988.63
2023-04-08T04:56:06.953Z,100985.16
2023-04-08T04:57:10.993Z,100992.78
2023-04-08T04:58:12.505Z,100994.53
2023-04-08T04:59:14.990Z,100992.31
2023-04-08T05:00:17.066Z,101003.00
2023-04-08T05:01:19.599Z,101004.06
2023-04-08T05:02:21.150Z,100997.78
2023-04-08T05:03:23.814Z,100998.25
2023-04-08T05:04:25.913Z,100995.03
2023-04-08T05:05:29.663Z,101006.84
2023-04-08T05:06:31.608Z,101005.19
2023-04-08T05:07:36.745Z,100997.00
2023-04-08T05:08:38.322Z,100993.28
2023-04-08T05:09:40.783Z,101006.56
2023-04-08T05:10:42.309Z,101001.50
2023-04-08T05:11:44.743Z,101003.25
2023-04-08T05:12:47.246Z,100996.03
2023-04-08T05:13:48.797Z,100998.78
2023-04-08T05:14:51.232Z,101003.69
2023-04-08T05:15:53.749Z,101001.00
2023-04-08T05:16:55.335Z,101002.53
2023-04-08T05:17:57.826Z,101004.63
2023-04-08T05:19:00.410Z,101000.91
2023-04-08T05:20:02.243Z,100994.34
2023-04-08T05:21:06.185Z,100996.66
2023-04-08T05:22:07.669Z,101002.63
2023-04-08T05:23:10.249Z,101003.63
2023-04-08T05:24:11.848Z,101004.53
2023-04-08T05:25:14.444Z,101005.69
2023-04-08T05:26:16.549Z,101012.50
2023-04-08T05:27:19.197Z,101013.03
2023-04-08T05:28:20.938Z,101011.97
2023-04-08T05:29:23.375Z,101011.88
2023-04-08T05:30:24.870Z,101011.03
2023-04-08T05:31:27.669Z,101015.50
2023-04-08T05:32:30.130Z,101017.75
2023-04-08T05:33:32.606Z,101015.28
2023-04-08T05:34:34.105Z,101014.47
2023-04-08T05:35:36.891Z,101022.25
2023-04-08T05:36:39.759Z,101020.34
2023-04-08T05:37:42.186Z,101020.56
2023-04-08T05:38:44.320Z,101016.44
2023-04-08T05:39:46.812Z,101018.94
2023-04-08T05:40:48.339Z,101024.13
2023-04-08T05:41:50.987Z,101016.34
2023-04-08T05:42:52.500Z,101020.31
2023-04-08T05:43:54.941Z,101021.72
2023-04-08T05:44:57.346Z,101014.56
2023-04-08T05:45:58.932Z,101012.22
2023-04-08T05:47:01.466Z,101009.50
2023-04-08T05:48:03.074Z,101010.34
2023-04-08T05:49:05.614Z,101006.88
2023-04-08T05:50:08.516Z,101012.66
2023-04-08T05:51:14.898Z,101012.78
2023-04-08T05:52:17.798Z,101016.81
2023-04-08T05:53:20.406Z,101022.31
2023-04-08T05:54:22.036Z,101023.03
2023-04-08T05:55:24.702Z,101032.69
2023-04-08T05:56:26.465Z,101024.09
2023-04-08T05:57:28.932Z,101029.88
2023-04-08T05:58:30.433Z,101034.09
2023-04-08T05:59:32.891Z,101025.88
2023-04-08T06:00:34.706Z,101031.41
2023-04-08T06:01:37.382Z,101031.88
2023-04-08T06:02:39.250Z,101037.16
2023-04-08T06:03:41.966Z,101042.94
2023-04-08T06:04:43.827Z,101042.25
2023-04-08T06:05:46.470Z,101041.88
2023-04-08T06:06:48.156Z,101046.81
2023-04-08T06:07:52.085Z,101044.03
2023-04-08T06:08:53.675Z,101047.69
2023-04-08T06:09:56.302Z,101050.59
2023-04-08T06:10:58.753Z,101046.72
2023-04-08T06:12:00.255Z,101053.34
2023-04-08T06:13:02.734Z,101046.84
2023-04-08T06:14:04.265Z,101049.44
2023-04-08T06:15:08.179Z,101048.59
2023-04-08T06:16:14.895Z,101036.00
2023-04-08T06:17:17.452Z,101042.22
2023-04-08T06:18:18.968Z,101038.94
2023-04-08T06:19:21.474Z,101034.66
2023-04-08T06:20:23.064Z,101034.63
2023-04-08T06:21:25.752Z,101030.28
2023-04-08T06:22:27.447Z,101037.44
2023-04-08T06:23:31.756Z,101041.16
2023-04-08T06:24:34.040Z,101043.28
2023-04-08T06:25:36.537Z,101040.19
2023-04-08T06:26:39.010Z,101044.13
2023-04-08T06:27:40.531Z,101047.28
2023-04-08T06:28:43.037Z,101047.28
2023-04-08T06:29:44.601Z,101038.28
2023-04-08T06:30:47.098Z,101048.09
2023-04-08T06:31:48.831Z,101047.00
2023-04-08T06:32:51.353Z,101051.09
2023-04-08T06:33:52.887Z,101052.13
2023-04-08T06:34:55.398Z,101057.41
2023-04-08T06:36:04.057Z,101058.00
2023-04-08T06:37:07.069Z,101056.59
2023-04-08T06:38:08.564Z,101056.00
2023-04-08T06:39:12.442Z,101053.50
2023-04-08T06:40:13.972Z,101061.28
2023-04-08T06:41:16.459Z,101054.84
2023-04-08T06:42:17.973Z,101067.00
2023-04-08T06:43:20.457Z,101027.19
2023-04-08T06:44:21.996Z,101066.06
2023-04-08T06:45:24.462Z,101058.38
2023-04-08T06:46:26.560Z,101060.03
2023-04-08T06:47:29.112Z,101054.47
2023-04-08T06:48:31.033Z,101057.97
2023-04-08T06:49:33.600Z,101067.41
2023-04-08T06:50:35.112Z,101067.38
2023-04-08T06:51:37.794Z,101071.31
2023-04-08T06:52:39.329Z,101064.97
2023-04-08T06:53:42.001Z,101059.97
2023-04-08T06:54:44.901Z,101072.00
2023-04-08T06:55:47.386Z,101065.88
2023-04-08T06:56:48.917Z,101078.88
2023-04-08T06:57:51.391Z,101083.34
2023-04-08T06:58:53.307Z,101078.78
2023-04-08T06:59:56.056Z,101080.88
2023-04-08T07:01:00.617Z,101088.53
2023-04-08T07:02:02.300Z,101089.84
2023-04-08T07:03:05.190Z,101098.19
2023-04-08T07:04:06.743Z,101093.72
2023-04-08T07:05:10.054Z,101090.31
2023-04-08T07:06:11.631Z,101101.47
2023-04-08T07:07:14.094Z,101097.84
2023-04-08T07:08:15.726Z,101097.25
2023-04-08T07:09:18.239Z,101095.06
2023-04-08T07:10:21.299Z,101094.91
2023-04-08T07:11:23.806Z,101097.72
2023-04-08T07:12:25.332Z,101091.84
2023-04-08T07:13:27.833Z,101092.31
2023-04-08T07:14:29.883Z,101096.31
2023-04-08T07:15:32.488Z,101096.06
2023-04-08T07:16:34.042Z,101097.56
2023-04-08T07:17:36.999Z,101086.41
2023-04-08T07:18:41.405Z,101086.63
2023-04-08T07:19:44.149Z,101091.66
2023-04-08T07:20:46.616Z,101094.31
2023-04-08T07:21:48.334Z,101089.97
2023-04-08T07:22:51.025Z,101100.28
2023-04-08T07:23:53.472Z,101095.72
2023-04-08T07:24:55.457Z,101101.34
2023-04-08T07:26:03.242Z,101091.53
2023-04-08T07:27:04.875Z,101095.94
2023-04-08T07:28:07.316Z,101088.16
2023-04-08T07:29:09.929Z,101099.59
2023-04-08T07:30:12.732Z,101096.31
2023-04-08T07:31:16.892Z,101091.72
2023-04-08T07:32:19.375Z,101105.84
2023-04-08T07:33:24.055Z,101102.78
2023-04-08T07:34:26.505Z,101103.84
2023-04-08T07:35:28.368Z,101102.19
2023-04-08T07:36:30.858Z,101101.50
2023-04-08T07:37:32.519Z,101107.97
2023-04-08T07:38:35.395Z,101107.63
2023-04-08T07:39:36.916Z,101109.50
2023-04-08T07:40:39.361Z,101108.91
2023-04-08T07:41:43.175Z,101105.38
2023-04-08T07:42:44.798Z,101106.78
2023-04-08T07:43:47.375Z,101101.81
2023-04-08T07:44:50.392Z,101086.66
2023-04-08T07:45:52.102Z,101102.78
2023-04-08T07:46:54.656Z,101099.25
2023-04-08T07:47:56.307Z,101102.53
2023-04-08T07:48:58.784Z,101102.44
2023-04-08T07:50:01.517Z,101102.09
2023-04-08T07:51:08.767Z,101102.66
2023-04-08T07:52:13.298Z,101099.97
2023-04-08T07:53:15.823Z,101097.53
2023-04-08T07:54:18.476Z,101106.03
2023-04-08T07:55:19.997Z,101101.84
2023-04-08T07:56:22.508Z,101106.28
2023-04-08T07:57:26.576Z,101104.53
2023-04-08T07:58:28.302Z,101108.84
2023-04-08T07:59:31.029Z,101113.72
2023-04-08T08:00:33.294Z,101113.63
2023-04-08T08:01:35.974Z,101115.88
2023-04-08T08:02:37.561Z,101115.59
2023-04-08T08:03:40.317Z,101123.66
2023-04-08T08:04:43.057Z,101125.91
2023-04-08T08:05:45.795Z,101122.22
2023-04-08T08:06:47.520Z,101115.28
2023-04-08T08:07:50.473Z,101122.59
2023-04-08T08:08:53.022Z,101122.00
2023-04-08T08:09:54.791Z,101120.09
2023-04-08T08:10:57.319Z,101125.63
2023-04-08T08:11:59.803Z,101123.41
2023-04-08T08:13:02.946Z,101124.81
2023-04-08T08:14:05.773Z,101130.31
2023-04-08T08:15:09.717Z,101133.72
2023-04-08T08:16:12.498Z,101128.31
2023-04-08T08:17:14.421Z,101128.47
2023-04-08T08:18:16.923Z,101129.38
2023-04-08T08:19:18.521Z,101122.91
2023-04-08T08:20:20.952Z,101122.00
2023-04-08T08:21:22.495Z,101124.34
2023-04-08T08:22:24.947Z,101124.44
2023-04-08T08:23:28.068Z,101130.75
2023-04-08T08:24:30.584Z,101134.94
2023-04-08T08:25:32.612Z,101139.44
2023-04-08T08:26:36.982Z,101142.50
2023-04-08T08:27:41.114Z,101137.31
2023-04-08T08:28:44.952Z,101136.97
2023-04-08T08:29:46.436Z,101143.34
2023-04-08T08:30:49.179Z,101145.44
2023-04-08T08:31:51.705Z,101148.84
2023-04-08T08:32:54.255Z,101151.81
2023-04-08T08:33:55.996Z,101153.34
2023-04-08T08:34:58.448Z,101156.50
2023-04-08T08:36:00.273Z,101152.50
2023-04-08T08:37:02.780Z,101160.97
2023-04-08T08:38:05.220Z,101154.22
2023-04-08T08:39:07.751Z,101154.59
2023-04-08T08:40:10.470Z,101161.69
2023-04-08T08:41:13.157Z,101154.22
2023-04-08T08:42:22.198Z,101162.28
2023-04-08T08:43:25.721Z,101158.50
2023-04-08T08:44:30.821Z,101157.94
2023-04-08T08:45:33.491Z,101162.59
2023-04-08T08:46:36.301Z,101162.38
2023-04-08T08:47:38.345Z,101163.31
2023-04-08T08:48:40.885Z,101160.66
2023-04-08T08:49:42.720Z,101165.94
2023-04-08T08:50:45.600Z,101171.22
2023-04-08T08:51:49.088Z,101172.84
2023-04-08T08:52:51.356Z,101170.19
2023-04-08T08:53:54.158Z,101177.06
2023-04-08T08:54:58.227Z,101167.91
2023-04-08T08:56:17.275Z,101174.16
2023-04-08T08:57:21.471Z,101168.22
2023-04-08T08:58:26.714Z,101173.75
2023-04-08T08:59:30.481Z,101167.47
2023-04-08T09:00:34.490Z,101172.69
2023-04-08T09:01:38.984Z,101172.50
2023-04-08T09:02:40.830Z,101173.63
2023-04-08T09:03:43.713Z,101172.47
2023-04-08T09:04:56.728Z,101167.91
2023-04-08T09:06:02.049Z,101175.31
2023-04-08T09:07:10.044Z,101169.34
2023-04-08T09:08:24.698Z,101172.13
2023-04-08T09:09:27.208Z,101189.25
2023-04-08T09:10:29.042Z,101189.25
2023-04-08T09:11:31.470Z,101190.03
2023-04-08T09:12:34.036Z,101194.47
2023-04-08T09:13:36.982Z,101182.16
2023-04-08T09:14:41.445Z,101191.28
2023-04-08T09:16:00.968Z,101193.25
2023-04-08T09:17:03.554Z,101191.19
2023-04-08T09:18:21.981Z,101189.38
2023-04-08T09:19:24.569Z,101192.66
2023-04-08T09:20:26.411Z,101194.44
2023-04-08T09:21:28.979Z,101194.00
2023-04-08T09:22:31.643Z,101192.66
2023-04-08T09:23:41.030Z,101191.50
2023-04-08T09:24:43.879Z,101197.88
2023-04-08T09:25:45.392Z,101195.28
2023-04-08T09:26:48.173Z,101204.38
2023-04-08T09:27:49.741Z,101196.72
2023-04-08T09:29:03.964Z,101208.22
2023-04-08T09:30:15.262Z,101211.38
2023-04-08T09:31:21.892Z,101203.69
2023-04-08T09:32:24.572Z,101204.50
2023-04-08T09:33:30.792Z,101201.56
2023-04-08T09:34:34.397Z,101207.38
2023-04-08T09:35:37.278Z,101208.00
2023-04-08T09:36:39.101Z,101207.69
2023-04-08T09:37:41.538Z,101207.78
2023-04-08T09:38:43.441Z,101203.56
2023-04-08T09:39:46.103Z,101204.78
2023-04-08T09:40:47.693Z,101206.81
2023-04-08T09:41:51.580Z,101201.19
2023-04-08T09:42:56.201Z,101208.13
2023-04-08T09:43:58.880Z,101208.34
2023-04-08T09:45:05.751Z,101207.44
2023-04-08T09:46:11.852Z,101204.69
2023-04-08T09:47:28.907Z,101207.88
2023-04-08T09:48:38.777Z,101210.72
2023-04-08T09:49:47.649Z,101215.56
2023-04-08T09:50:51.132Z,101207.44
2023-04-08T09:52:00.836Z,101215.59
2023-04-08T09:53:13.234Z,101207.88
2023-04-08T09:54:19.425Z,101214.41
2023-04-08T09:55:23.819Z,101210.28
2023-04-08T09:56:30.920Z,101219.16
2023-04-08T09:57:43.499Z,101219.22
2023-04-08T09:58:52.861Z,101209.53
2023-04-08T10:00:02.961Z,101210.69
2023-04-08T10:01:06.898Z,101213.06
2023-04-08T10:02:12.696Z,101212.69
2023-04-08T10:03:23.706Z,101206.44
2023-04-08T10:04:29.213Z,101215.66
2023-04-08T10:05:31.619Z,101203.03
2023-04-08T10:06:35.935Z,101212.78
2023-04-08T10:07:37.728Z,101211.97
2023-04-08T10:08:40.431Z,101216.19
2023-04-08T10:09:43.216Z,101198.94
2023-04-08T10:10:47.892Z,101222.00
2023-04-08T10:11:50.575Z,101214.41
2023-04-08T10:12:53.251Z,101216.22
2023-04-08T10:13:54.948Z,101216.81
2023-04-08T10:15:29.382Z,101218.53
2023-04-08T10:16:32.023Z,101209.50
2023-04-08T10:17:36.881Z,101214.19
2023-04-08T10:18:39.443Z,101211.09
2023-04-08T10:19:41.422Z,101209.88
2023-04-08T10:20:45.736Z,101209.34
2023-04-08T10:21:50.121Z,101209.56
2023-04-08T10:22:51.675Z,101215.09
2023-04-08T10:23:59.058Z,101213.19
2023-04-08T10:25:32.723Z,101220.88
2023-04-08T10:26:36.724Z,101216.50
2023-04-08T10:27:42.706Z,101213.25
2023-04-08T10:28:45.243Z,101218.44
2023-04-08T10:29:48.381Z,101212.03
2023-04-08T10:30:52.050Z,101213.88
2023-04-08T10:31:53.679Z,101207.16
2023-04-08T10:32:59.980Z,101215.81
2023-04-08T10:34:17.171Z,101214.13
2023-04-08T10:35:32.496Z,101221.31
2023-04-08T10:36:35.305Z,101217.44
2023-04-08T10:37:36.950Z,101219.44
2023-04-08T10:38:40.212Z,101222.78
2023-04-08T10:39:49.365Z,101225.88
2023-04-08T10:40:52.437Z,101222.66
2023-04-08T10:41:54.254Z,101231.19
2023-04-08T10:42:56.733Z,101214.94
2023-04-08T10:43:58.293Z,101224.13
2023-04-08T10:45:02.610Z,101228.47
2023-04-08T10:46:06.501Z,101229.53
2023-04-08T10:47:09.013Z,101223.47
2023-04-08T10:48:29.104Z,101219.84
2023-04-08T10:49:34.299Z,101229.56
2023-04-08T10:50:37.604Z,101226.44
2023-04-08T10:51:40.092Z,101219.13
2023-04-08T10:52:47.819Z,101221.75
2023-04-08T10:53:50.306Z,101217.47
2023-04-08T10:54:54.065Z,101221.84
2023-04-08T10:56:03.291Z,101218.09
2023-04-08T10:57:06.852Z,101217.50
2023-04-08T10:58:09.688Z,101227.84
2023-04-08T10:59:12.421Z,101221.97
2023-04-08T11:00:19.501Z,101219.53
2023-04-08T11:01:22.562Z,101222.75
2023-04-08T11:02:33.798Z,101214.91
2023-04-08T11:03:37.284Z,101228.47
2023-04-08T11:04:42.847Z,101221.88
2023-04-08T11:05:44.421Z,101230.50
2023-04-08T11:06:48.398Z,101223.59
2023-04-08T11:07:50.263Z,101220.16
2023-04-08T11:08:52.739Z,101223.06
2023-04-08T11:09:55.695Z,101218.97
2023-04-08T11:10:58.359Z,101224.13
2023-04-08T11:12:02.100Z,101228.13
2023-04-08T11:13:03.714Z,101222.94
2023-04-08T11:14:07.012Z,101223.88
2023-04-08T11:15:10.574Z,101232.00
2023-04-08T11:16:18.253Z,101222.91
2023-04-08T11:17:21.451Z,101222.50
2023-04-08T11:18:24.451Z,101228.00
2023-04-08T11:19:28.329Z,101229.16
2023-04-08T11:20:29.861Z,101227.25
2023-04-08T11:21:32.952Z,101227.94
2023-04-08T11:22:35.811Z,101226.94
2023-04-08T11:23:38.468Z,101222.53
2023-04-08T11:24:40.273Z,101226.28
2023-04-08T11:25:43.025Z,101221.41
2023-04-08T11:26:45.990Z,101220.69
2023-04-08T11:27:49.248Z,101219.66
2023-04-08T11:28:52.409Z,101224.25
2023-04-08T11:29:56.216Z,101226.16
2023-04-08T11:30:59.005Z,101226.19
2023-04-08T11:32:01.687Z,101219.28
2023-04-08T11:33:03.790Z,101224.53
2023-04-08T11:34:06.226Z,101223.25
2023-04-08T11:35:11.093Z,101220.91
2023-04-08T11:36:13.114Z,101224.31
2023-04-08T11:37:16.045Z,101220.50
2023-04-08T11:38:23.805Z,101220.91
2023-04-08T11:39:26.444Z,101224.09
2023-04-08T11:40:30.024Z,101229.22
2023-04-08T11:41:37.747Z,101227.44
2023-04-08T11:42:39.796Z,101219.25
2023-04-08T11:43:52.708Z,101226.56
2023-04-08T11:44:55.593Z,101226.22
2023-04-08T11:45:57.666Z,101226.69
2023-04-08T11:47:02.028Z,101211.22
2023-04-08T11:48:09.539Z,101218.03
2023-04-08T11:49:12.239Z,101228.25
2023-04-08T11:50:22.877Z,101233.25
2023-04-08T11:51:25.388Z,101227.78
2023-04-08T11:52:42.908Z,101225.78
2023-04-08T11:53:48.007Z,101227.44
2023-04-08T11:54:50.501Z,101225.13
2023-04-08T11:55:52.441Z,101225.34
2023-04-08T11:56:54.911Z,101227.69
2023-04-08T11:57:57.852Z,101223.94
2023-04-08T11:59:00.380Z,101216.97
2023-04-08T12:00:01.914Z,101220.97
2023-04-08T12:01:04.375Z,101217.97
2023-04-08T12:02:06.916Z,101212.94
2023-04-08T12:03:08.859Z,101223.59
2023-04-08T12:04:12.152Z,101228.50